Thunder radar more information blitzortung!


Radar de pluja more information rain snow radar


Visita la nostra xarxa de llocs de meteo:

Template documentation
and downloads

And another site



No particular awareness of the weather is required.    There are no Weather-warnings

Pagina Historial Weather Underground text

Diari Resum May 21, 2017 Unitats:  Imperial    Mètric   Tant
« Previous Dia
SegĂźent Dia »
Diari Setmana Mensual Anual Personalitzada
  Maxima: Minima: Media:
Temperatura: 79.2 °F 52.5 °F 69.3 °F
Punt de rosada: 55.6 °F 45.3 °F 50 °F
Humitat: 80 % 39 % 52 %
Wind Speed: 14.7 mph 0 mph 4.7 mph
RĂ fegues de vent: 14.7 mph - -
Vent:- - SSW
Pression baro: 30.3 in 30.1 in -
Precipitacions: 0 in    
Historical Graphs
 
 
Dades de taula per May 21, 2017
Temps Temperatura Punt de rosada Pression baro Vent Wind Speed RĂ fegues de vent Humitat Rainfall Rate (Hourly)
00:00 54.5 °F 47.8 °F 30.2 in SSW 1 mph 1 mph 78 % 0 in
00:04 59.9 °F 50.5 °F 30.3 in NE 3.5 mph 3.5 mph 71 % 0 in
00:09 59.7 °F 50.4 °F 30.3 in NE 2.3 mph 2.3 mph 71 % 0 in
00:10 54.3 °F 47.7 °F 30.3 in Calm     78 % 0 in
00:20 53.8 °F 47.1 °F 30.3 in Calm     78 % 0 in
00:30 53.6 °F 47.1 °F 30.2 in ESE 1 mph 2 mph 79 % 0 in
00:40 53.4 °F 47.1 °F 30.2 in ENE 1 mph 2 mph 79 % 0 in
00:50 53.4 °F 47.1 °F 30.2 in NE 1 mph 2 mph 79 % 0 in
01:00 53.2 °F 46.9 °F 30.2 in Calm   1 mph 79 % 0 in
01:10 53.1 °F 46.8 °F 30.2 in Calm     79 % 0 in
01:20 52.9 °F 46.6 °F 30.2 in East 1 mph 1 mph 79 % 0 in
01:30 52.7 °F 46.4 °F 30.2 in Calm     79 % 0 in
01:40 52.5 °F 46.6 °F 30.2 in Calm     80 % 0 in
01:50 52.5 °F 46.6 °F 30.2 in NNE 1 mph 1 mph 80 % 0 in
02:00 52.7 °F 46.8 °F 30.3 in Calm   2 mph 80 % 0 in
02:10 53.2 °F 47.1 °F 30.2 in Calm   2 mph 80 % 0 in
02:20 53.6 °F 47.7 °F 30.2 in ESE 1 mph 2 mph 80 % 0 in
02:30 53.8 °F 47.5 °F 30.2 in South 2 mph 2 mph 79 % 0 in
02:40 54 °F 47.7 °F 30.3 in SW 1 mph 2 mph 79 % 0 in
02:50 54.3 °F 47.8 °F 30.3 in WSW 1 mph 3 mph 79 % 0 in
03:00 55.6 °F 49.3 °F 30.3 in Calm   1 mph 79 % 0 in
03:10 57 °F 49.8 °F 30.3 in SSW 2 mph 2 mph 77 % 0 in
03:20 56.7 °F 49.3 °F 30.3 in SSW 1 mph 2 mph 76 % 0 in
03:30 57.7 °F 50.2 °F 30.2 in SW 2 mph 2 mph 76 % 0 in
03:40 59.2 °F 51.3 °F 30.2 in SW 1 mph 2 mph 75 % 0 in
03:50 60.6 °F 52.3 °F 30.2 in Calm   2 mph 74 % 0 in
04:00 60.3 °F 50.7 °F 30.3 in NE 3 mph 3 mph 71 % 0 in
04:10 61 °F 51.4 °F 30.2 in NE 2 mph 4 mph 71 % 0 in
04:20 61.3 °F 51.4 °F 30.2 in ENE 2 mph 3 mph 70 % 0 in
04:30 62.2 °F 52 °F 30.2 in ENE 2 mph 3 mph 69 % 0 in
04:40 64 °F 52.9 °F 30.2 in Calm   2 mph 67 % 0 in
04:50 64.2 °F 52.2 °F 30.2 in NE 2 mph 3 mph 65 % 0 in
05:00 64.8 °F 52.7 °F 30.2 in NE 1 mph 3 mph 65 % 0 in
05:10 65.1 °F 52.5 °F 30.2 in ENE 3 mph 3 mph 64 % 0 in
05:20 65.8 °F 52.9 °F 30.2 in ENE 1 mph 4 mph 63 % 0 in
05:30 67.5 °F 53.4 °F 30.2 in SE 2 mph 2 mph 61 % 0 in
05:40 67.6 °F 53.2 °F 30.2 in South 2 mph 3 mph 60 % 0 in
05:50 68.4 °F 53.1 °F 30.2 in SSW 1 mph 2 mph 58 % 0 in
06:00 69.4 °F 53.4 °F 30.2 in SSW 2 mph 4 mph 57 % 0 in
06:10 70 °F 53.6 °F 30.2 in SSW 2 mph 3 mph 56 % 0 in
06:20 70.5 °F 53.1 °F 30.2 in SSW 2 mph 5 mph 54 % 0 in
06:30 70.9 °F 52.3 °F 30.2 in SW 3 mph 5 mph 52 % 0 in
06:40 72.1 °F 53.4 °F 30.2 in WSW 3 mph 5 mph 52 % 0 in
06:50 72 °F 52.9 °F 30.2 in SW 3 mph 6 mph 51 % 0 in
07:00 73.8 °F 54 °F 30.2 in SSW 5 mph 5 mph 50 % 0 in
07:10 74.1 °F 53.8 °F 30.2 in SSW 3 mph 3 mph 49 % 0 in
12:14 74.5 °F 54.1 °F 30.2 in SSW 3.5 mph 3.8 mph 49 % 0 in
12:15 74.5 °F 54.1 °F 30.2 in SW 3.5 mph 3.8 mph 49 % 0 in
12:20 74.7 °F 54.1 °F 30.2 in SW 5.8 mph 5.8 mph 49 % 0 in
12:25 74.8 °F 53.8 °F 30.2 in SW 5.8 mph 5.8 mph 48 % 0 in
12:30 74.8 °F 54.3 °F 30.2 in SW 8.1 mph 8.1 mph 49 % 0 in
12:35 75.4 °F 54.9 °F 30.2 in SW 8.1 mph 8.1 mph 49 % 0 in
12:40 76.1 °F 55.6 °F 30.2 in SSW 4.6 mph 4.6 mph 49 % 0 in
12:45 75 °F 54.7 °F 30.2 in SW 5.8 mph 6.7 mph 49 % 0 in
12:50 74.8 °F 54.3 °F 30.2 in SSW 5.8 mph 5.8 mph 49 % 0 in
12:55 74.7 °F 54.1 °F 30.2 in WNW 9.2 mph 9.2 mph 49 % 0 in
13:00 75.2 °F 54.7 °F 30.2 in SSW 6.9 mph 6.9 mph 49 % 0 in
13:05 74.8 °F 54.3 °F 30.2 in WNW 10.4 mph 10.4 mph 49 % 0 in
13:10 75.4 °F 54.3 °F 30.2 in SSW 4.6 mph 4.6 mph 48 % 0 in
13:15 75.6 °F 54.5 °F 30.2 in WSW 11.5 mph 11.5 mph 48 % 0 in
13:17 75.4 °F 54.3 °F 30.2 in SSW 9.2 mph 9.2 mph 48 % 0 in
13:22 75.4 °F 54.3 °F 30.2 in WSW 4.6 mph 4.6 mph 48 % 0 in
13:27 75.9 °F 54.9 °F 30.2 in SW 6 mph 6 mph 48 % 0 in
13:32 75.7 °F 54.1 °F 30.2 in SW 3.5 mph 3.8 mph 47 % 0 in
13:37 76.3 °F 54.7 °F 30.2 in SW 3.5 mph 3.5 mph 47 % 0 in
13:42 76.8 °F 55 °F 30.2 in South 6.4 mph 6.4 mph 47 % 0 in
13:47 77.2 °F 54.9 °F 30.2 in SE 4.6 mph 4.6 mph 46 % 0 in
13:52 77 °F 54 °F 30.2 in ESE 7.8 mph 7.8 mph 45 % 0 in
13:57 77.4 °F 53.8 °F 30.2 in ESE 4.6 mph 4.6 mph 44 % 0 in
14:02 77.2 °F 53.6 °F 30.2 in SW 4.6 mph 4.6 mph 44 % 0 in
14:07 76.5 °F 53.4 °F 30.2 in SSW 4 mph 4 mph 45 % 0 in
14:12 77.4 °F 53.8 °F 30.2 in SSW 5.8 mph 5.8 mph 44 % 0 in
14:17 78.3 °F 54.7 °F 30.2 in South 4.6 mph 4.6 mph 44 % 0 in
14:22 77.7 °F 53.4 °F 30.2 in SE 5.8 mph 5.8 mph 43 % 0 in
14:27 77.5 °F 53.2 °F 30.2 in WSW 2.6 mph 2.6 mph 43 % 0 in
14:32 77 °F 52.9 °F 30.2 in SE 5.8 mph 5.8 mph 43 % 0 in
14:37 78.3 °F 54 °F 30.2 in SSW 3.5 mph 3.5 mph 43 % 0 in
14:42 78.4 °F 54.1 °F 30.2 in West 2.6 mph 2.6 mph 43 % 0 in
14:47 78.3 °F 54 °F 30.2 in WSW 8.1 mph 8.1 mph 43 % 0 in
14:52 77.9 °F 53.1 °F 30.2 in SW 8.1 mph 8.1 mph 42 % 0 in
14:57 78.3 °F 53.2 °F 30.2 in ESE 4.6 mph 4.6 mph 42 % 0 in
15:02 78.4 °F 53.4 °F 30.2 in WSW 8.1 mph 8.1 mph 42 % 0 in
15:07 78.3 °F 53.2 °F 30.2 in SSW 5.8 mph 5.8 mph 42 % 0 in
15:12 79 °F 54 °F 30.2 in SSW 8.1 mph 8.1 mph 42 % 0 in
15:17 78.4 °F 53.4 °F 30.2 in SW 6.9 mph 6.9 mph 42 % 0 in
15:22 78.6 °F 52.9 °F 30.2 in WSW 5.8 mph 5.8 mph 41 % 0 in
15:27 78.6 °F 53.6 °F 30.2 in WSW 3.5 mph 3.5 mph 42 % 0 in
15:32 79.2 °F 54.1 °F 30.2 in WSW 5.8 mph 5.8 mph 42 % 0 in
15:37 78.8 °F 53.1 °F 30.2 in WSW 8.1 mph 8.1 mph 41 % 0 in
15:42 78.8 °F 53.1 °F 30.2 in SSW 10.4 mph 10.4 mph 41 % 0 in
15:47 79.2 °F 53.4 °F 30.2 in SSW 6.9 mph 6.9 mph 41 % 0 in
15:48 79 °F 53.2 °F 30.2 in SW 8.1 mph 8.1 mph 41 % 0 in
15:53 78.3 °F 52.5 °F 30.2 in SW 9.2 mph 9.2 mph 41 % 0 in
15:58 78.1 °F 52.5 °F 30.2 in SW 9.2 mph 9.2 mph 41 % 0 in
16:03 78.1 °F 52.5 °F 30.2 in West 8.1 mph 8.1 mph 41 % 0 in
16:08 77.9 °F 52.3 °F 30.2 in WSW 9.2 mph 9.2 mph 41 % 0 in
16:13 78.4 °F 52.9 °F 30.2 in South 5.8 mph 5.8 mph 41 % 0 in
16:18 77.9 °F 52.3 °F 30.2 in SW 8.1 mph 8.1 mph 41 % 0 in
16:19 78.1 °F 52.5 °F 30.2 in SW 8.7 mph 8.7 mph 41 % 0 in
16:24 78.1 °F 52.5 °F 30.2 in West 8.1 mph 8.1 mph 41 % 0 in
16:29 78.1 °F 51.8 °F 30.2 in SW 13.8 mph 13.8 mph 40 % 0 in
16:34 78.1 °F 51.8 °F 30.2 in South 6.9 mph 6.9 mph 40 % 0 in
16:39 78.1 °F 51.8 °F 30.2 in SSW 8.1 mph 8.1 mph 40 % 0 in
16:44 77.5 °F 51.3 °F 30.2 in SW 9.2 mph 9.2 mph 40 % 0 in
16:49 78.1 °F 51.8 °F 30.2 in WSW 5.8 mph 5.8 mph 40 % 0 in
16:54 78.6 °F 52.3 °F 30.2 in SSW 4.6 mph 4.6 mph 40 % 0 in
16:59 79 °F 52.5 °F 30.2 in SW 5.9 mph 5.9 mph 40 % 0 in
17:04 77.9 °F 51.6 °F 30.2 in WSW 11.5 mph 11.5 mph 40 % 0 in
17:09 77.5 °F 51.3 °F 30.1 in SW 7.4 mph 7.4 mph 40 % 0 in
17:14 77.9 °F 51.6 °F 30.1 in SW 8.1 mph 8.1 mph 40 % 0 in
17:19 78.1 °F 51.1 °F 30.1 in SSE 5.8 mph 5.8 mph 39 % 0 in
17:24 77.2 °F 50.4 °F 30.1 in WSW 6.9 mph 6.9 mph 39 % 0 in
17:29 77.4 °F 50.5 °F 30.1 in SSW 4.7 mph 4.7 mph 39 % 0 in
17:34 76.3 °F 50.2 °F 30.1 in SW 8.1 mph 8.1 mph 40 % 0 in
17:39 75.9 °F 49.8 °F 30.1 in SSW 14.7 mph 14.7 mph 40 % 0 in
17:40 75.9 °F 49.8 °F 30.1 in SSW 5.9 mph 5.9 mph 40 % 0 in
17:45 75.6 °F 49.5 °F 30.1 in SW 10.5 mph 10.5 mph 40 % 0 in
17:50 75.2 °F 49.3 °F 30.1 in SW 9.7 mph 9.7 mph 40 % 0 in
17:55 75.2 °F 49.3 °F 30.1 in South 6.9 mph 6.9 mph 40 % 0 in
18:00 75.4 °F 49.5 °F 30.1 in SW 6 mph 9 mph 40 % 0 in
18:05 75.4 °F 50 °F 30.1 in SW 5 mph 10 mph 41 % 0 in
18:10 75 °F 49.6 °F 30.1 in WSW 10.4 mph 10.4 mph 41 % 0 in
18:15 74.5 °F 48.6 °F 30.1 in SW 6.2 mph 6.2 mph 40 % 0 in
18:20 73.9 °F 48.7 °F 30.1 in SW 8.1 mph 8.1 mph 41 % 0 in
18:25 73.9 °F 48.7 °F 30.1 in SW 4.6 mph 4.6 mph 41 % 0 in
18:30 73.8 °F 48.6 °F 30.1 in SW 10.4 mph 10.4 mph 41 % 0 in
18:35 72.5 °F 48 °F 30.1 in West 8.1 mph 8.1 mph 42 % 0 in
18:40 72.1 °F 47.8 °F 30.1 in SSW 6.9 mph 6.9 mph 42 % 0 in
18:45 71.8 °F 47.5 °F 30.1 in SW 12.7 mph 12.7 mph 42 % 0 in
18:50 71.8 °F 48 °F 30.1 in SW 10.4 mph 10.4 mph 43 % 0 in
18:55 72 °F 48.2 °F 30.2 in SSE 4.6 mph 4.6 mph 43 % 0 in
19:00 71.8 °F 48 °F 30.2 in West 8.1 mph 8.1 mph 43 % 0 in
19:05 71.2 °F 48.2 °F 30.2 in West 13.8 mph 13.8 mph 44 % 0 in
19:10 70.7 °F 47.7 °F 30.2 in SW 9.7 mph 9.7 mph 44 % 0 in
19:15 70 °F 47.7 °F 30.2 in SSW 8.1 mph 8.1 mph 45 % 0 in
19:20 69.8 °F 47.5 °F 30.2 in SSW 5.8 mph 5.8 mph 45 % 0 in
19:25 70 °F 47.7 °F 30.2 in SSW 3.5 mph 3.5 mph 45 % 0 in
19:30 70 °F 47.7 °F 30.2 in SW 8.5 mph 8.5 mph 45 % 0 in
19:35 69.4 °F 47.8 °F 30.2 in SW 8.1 mph 8.1 mph 46 % 0 in
19:40 68.9 °F 47.3 °F 30.2 in SSW 5.8 mph 5.8 mph 46 % 0 in
19:45 68.4 °F 46.8 °F 30.2 in SSW 9.2 mph 9.2 mph 46 % 0 in
19:50 68.4 °F 46.8 °F 30.2 in WSW 9.8 mph 9.8 mph 46 % 0 in
19:55 68 °F 46.4 °F 30.2 in SW 7.4 mph 7.4 mph 46 % 0 in
20:00 67.8 °F 46.2 °F 30.2 in WSW 5.8 mph 5.8 mph 46 % 0 in
20:05 68 °F 46.4 °F 30.2 in SW 4.6 mph 4.6 mph 46 % 0 in
20:10 67.8 °F 46.8 °F 30.2 in SW 3.5 mph 3.5 mph 47 % 0 in
20:15 67.6 °F 46.8 °F 30.2 in SW 5.8 mph 5.8 mph 47 % 0 in
20:20 67.3 °F 46.4 °F 30.2 in WSW 4.6 mph 4.6 mph 47 % 0 in
20:25 66.9 °F 46 °F 30.1 in SSW 5.8 mph 5.8 mph 47 % 0 in
20:30 66.9 °F 46 °F 30.1 in WSW 5.8 mph 5.8 mph 47 % 0 in
20:35 66.7 °F 45.9 °F 30.1 in SW 4.6 mph 4.6 mph 47 % 0 in
20:40 66.7 °F 45.9 °F 30.1 in SSW 3.5 mph 3.5 mph 47 % 0 in
20:45 66.6 °F 45.7 °F 30.1 in SW 4.6 mph 4.6 mph 47 % 0 in
20:50 66.4 °F 45.5 °F 30.1 in SW 3.5 mph 3.5 mph 47 % 0 in
20:55 66.2 °F 45.3 °F 30.1 in WSW 6 mph 6 mph 47 % 0 in
21:00 66 °F 45.9 °F 30.1 in SSW 2.3 mph 2.4 mph 48 % 0 in
21:05 65.8 °F 46 °F 30.1 in WSW 2.3 mph 2.3 mph 49 % 0 in
21:10 65.7 °F 46 °F 30.1 in WSW 3.5 mph 3.5 mph 49 % 0 in
21:15 65.5 °F 45.9 °F 30.1 in South 3.3 mph 3.3 mph 49 % 0 in
21:20 65.3 °F 45.7 °F 30.1 in WSW 2.3 mph 2.3 mph 49 % 0 in
21:25 65.3 °F 45.7 °F 30.1 in West 2.3 mph 2.3 mph 49 % 0 in
21:30 65.3 °F 45.7 °F 30.1 in SW 2.3 mph 2.3 mph 49 % 0 in
21:35 65.1 °F 45.5 °F 30.1 in SSW 3.5 mph 3.5 mph 49 % 0 in
21:40 64.9 °F 45.3 °F 30.1 in WSW 3.5 mph 3.5 mph 49 % 0 in
21:45 64.9 °F 45.9 °F 30.1 in WSW 2.2 mph   50 % 0 in
21:50 64.8 °F 45.7 °F 30.1 in WSW 3.5 mph 3.5 mph 50 % 0 in
21:55 64.6 °F 45.5 °F 30.1 in West 3.5 mph 3.5 mph 50 % 0 in
22:00 64.6 °F 45.5 °F 30.1 in SW 2.3 mph 2.3 mph 50 % 0 in
22:05 64.6 °F 45.5 °F 30.1 in SW 2.3 mph 2.3 mph 50 % 0 in
22:10 64.4 °F 45.3 °F 30.1 in SW 2.3 mph 2.3 mph 50 % 0 in
22:15 64.4 °F 45.3 °F 30.1 in SW 2.4 mph 2.4 mph 50 % 0 in
22:20 64 °F 45.5 °F 30.1 in SW 2.3 mph 2.3 mph 51 % 0 in
22:25 63.9 °F 45.3 °F 30.1 in SW 4.6 mph 4.6 mph 51 % 0 in
22:30 63.9 °F 45.3 °F 30.1 in WNW 2.3 mph 2.3 mph 51 % 0 in
22:35 63.9 °F 45.9 °F 30.1 in WSW 1.2 mph   52 % 0 in
22:40 63.9 °F 45.9 °F 30.2 in SW 2.3 mph 2.3 mph 52 % 0 in
22:45 63.7 °F 46.2 °F 30.2 in Calm     53 % 0 in
22:50 63.7 °F 46.2 °F 30.2 in WSW 2.3 mph 2.3 mph 53 % 0 in
22:51 63.7 °F 46.2 °F 30.2 in SW 2.3 mph 2.3 mph 53 % 0 in
22:56 63.5 °F 46.6 °F 30.1 in WSW 2.3 mph 2.3 mph 54 % 0 in
23:01 63.5 °F 46.6 °F 30.1 in WSW 3.5 mph 3.5 mph 54 % 0 in
23:06 63.5 °F 46.6 °F 30.1 in SW 2.2 mph 2.2 mph 54 % 0 in
23:11 63.5 °F 46.9 °F 30.1 in SW 1.6 mph 1.6 mph 55 % 0 in
23:16 63.5 °F 46.9 °F 30.1 in WSW 2.3 mph 2.3 mph 55 % 0 in
23:21 63.3 °F 47.3 °F 30.1 in SW 3.5 mph 3.5 mph 56 % 0 in
23:26 63.3 °F 47.8 °F 30.2 in SW 2.3 mph 2.3 mph 57 % 0 in
23:31 63.3 °F 48.4 °F 30.2 in WNW 2.4 mph 2.4 mph 58 % 0 in
23:36 63.3 °F 48.4 °F 30.2 in WSW 2.3 mph 2.3 mph 58 % 0 in
23:41 63.3 °F 48.7 °F 30.2 in WSW 2.3 mph 2.3 mph 59 % 0 in
23:46 63.1 °F 48.9 °F 30.2 in SW 2.3 mph 2.3 mph 60 % 0 in
23:51 63 °F 49.3 °F 30.2 in SW 2.3 mph 2.3 mph 61 % 0 in
23:56 62.8 °F 49.1 °F 30.1 in SW 2.3 mph 2.3 mph 61 % 0 in
Meteo Sesrovires
Elogis d' Weather Underground - 3.5 mb

Guio original per  Jim McMurry - jmcmurry@mwt.net Adaptat per a la plantilla per  Wim van der Kuil - Leuven-Template.eu

Trobareu la nostra informacio del temps tambe a:

Weather Underground

AWEKAS